sensor_id;sensor_type;location;lat;lon;timestamp;P1;durP1;ratioP1;P2;durP2;ratioP2
14235;SDS011;7202;50.718;7.072;2024-03-06T00:01:11;10.55;;;7.50;;
14235;SDS011;7202;50.718;7.072;2024-03-06T00:03:39;9.15;;;7.03;;
14235;SDS011;7202;50.718;7.072;2024-03-06T00:06:08;9.85;;;7.50;;
14235;SDS011;7202;50.718;7.072;2024-03-06T00:08:36;10.23;;;7.45;;
14235;SDS011;7202;50.718;7.072;2024-03-06T00:11:05;10.23;;;7.40;;
14235;SDS011;7202;50.718;7.072;2024-03-06T00:13:35;9.80;;;7.25;;
14235;SDS011;7202;50.718;7.072;2024-03-06T00:16:03;10.43;;;7.47;;
14235;SDS011;7202;50.718;7.072;2024-03-06T00:18:34;10.15;;;6.65;;
14235;SDS011;7202;50.718;7.072;2024-03-06T00:21:03;9.73;;;6.97;;
14235;SDS011;7202;50.718;7.072;2024-03-06T00:23:32;10.15;;;6.80;;
14235;SDS011;7202;50.718;7.072;2024-03-06T00:26:02;9.77;;;6.93;;
14235;SDS011;7202;50.718;7.072;2024-03-06T00:28:31;9.20;;;6.47;;
14235;SDS011;7202;50.718;7.072;2024-03-06T00:31:00;10.20;;;6.65;;
14235;SDS011;7202;50.718;7.072;2024-03-06T00:33:29;10.55;;;6.38;;
14235;SDS011;7202;50.718;7.072;2024-03-06T00:35:59;7.97;;;6.07;;
14235;SDS011;7202;50.718;7.072;2024-03-06T00:38:27;7.72;;;6.00;;
14235;SDS011;7202;50.718;7.072;2024-03-06T00:40:56;8.85;;;6.57;;
14235;SDS011;7202;50.718;7.072;2024-03-06T00:43:24;10.98;;;7.07;;
14235;SDS011;7202;50.718;7.072;2024-03-06T00:45:53;8.52;;;6.28;;
14235;SDS011;7202;50.718;7.072;2024-03-06T00:48:21;7.65;;;5.88;;
14235;SDS011;7202;50.718;7.072;2024-03-06T00:50:50;7.88;;;5.55;;
14235;SDS011;7202;50.718;7.072;2024-03-06T00:53:20;8.95;;;5.85;;
14235;SDS011;7202;50.718;7.072;2024-03-06T00:55:49;7.75;;;5.75;;
14235;SDS011;7202;50.718;7.072;2024-03-06T00:58:17;6.15;;;5.05;;
14235;SDS011;7202;50.718;7.072;2024-03-06T01:00:46;8.50;;;4.82;;
14235;SDS011;7202;50.718;7.072;2024-03-06T01:03:14;7.35;;;5.10;;
14235;SDS011;7202;50.718;7.072;2024-03-06T01:05:43;6.80;;;4.88;;
14235;SDS011;7202;50.718;7.072;2024-03-06T01:08:12;9.23;;;4.97;;
14235;SDS011;7202;50.718;7.072;2024-03-06T01:10:43;5.82;;;4.53;;
14235;SDS011;7202;50.718;7.072;2024-03-06T01:13:12;5.72;;;4.07;;
14235;SDS011;7202;50.718;7.072;2024-03-06T01:15:40;5.53;;;3.97;;
14235;SDS011;7202;50.718;7.072;2024-03-06T01:18:09;4.75;;;4.10;;
14235;SDS011;7202;50.718;7.072;2024-03-06T01:20:37;4.25;;;3.38;;
14235;SDS011;7202;50.718;7.072;2024-03-06T01:23:07;4.70;;;3.70;;
14235;SDS011;7202;50.718;7.072;2024-03-06T01:25:35;4.22;;;3.63;;
14235;SDS011;7202;50.718;7.072;2024-03-06T01:28:05;4.90;;;3.20;;
14235;SDS011;7202;50.718;7.072;2024-03-06T01:30:34;4.80;;;3.53;;
14235;SDS011;7202;50.718;7.072;2024-03-06T01:33:03;4.63;;;3.60;;
14235;SDS011;7202;50.718;7.072;2024-03-06T01:35:32;4.75;;;3.70;;
14235;SDS011;7202;50.718;7.072;2024-03-06T01:38:00;6.07;;;3.83;;
14235;SDS011;7202;50.718;7.072;2024-03-06T01:40:29;3.88;;;3.25;;
14235;SDS011;7202;50.718;7.072;2024-03-06T01:42:57;5.07;;;3.22;;
14235;SDS011;7202;50.718;7.072;2024-03-06T01:45:29;3.85;;;3.22;;
14235;SDS011;7202;50.718;7.072;2024-03-06T01:47:58;4.57;;;3.20;;
14235;SDS011;7202;50.718;7.072;2024-03-06T01:50:27;3.97;;;3.13;;
14235;SDS011;7202;50.718;7.072;2024-03-06T01:52:56;5.97;;;3.30;;
14235;SDS011;7202;50.718;7.072;2024-03-06T01:55:24;4.43;;;3.58;;
14235;SDS011;7202;50.718;7.072;2024-03-06T01:57:53;3.83;;;3.30;;
14235;SDS011;7202;50.718;7.072;2024-03-06T02:00:23;4.20;;;3.10;;
14235;SDS011;7202;50.718;7.072;2024-03-06T02:02:55;6.60;;;3.17;;
14235;SDS011;7202;50.718;7.072;2024-03-06T02:05:24;4.68;;;3.50;;
14235;SDS011;7202;50.718;7.072;2024-03-06T02:07:53;4.32;;;3.17;;
14235;SDS011;7202;50.718;7.072;2024-03-06T02:10:22;3.90;;;2.90;;
14235;SDS011;7202;50.718;7.072;2024-03-06T02:12:50;4.25;;;2.92;;
14235;SDS011;7202;50.718;7.072;2024-03-06T02:15:19;5.22;;;2.90;;
14235;SDS011;7202;50.718;7.072;2024-03-06T02:17:48;4.00;;;2.80;;
14235;SDS011;7202;50.718;7.072;2024-03-06T02:20:21;4.68;;;2.90;;
14235;SDS011;7202;50.718;7.072;2024-03-06T02:22:50;3.33;;;2.75;;
14235;SDS011;7202;50.718;7.072;2024-03-06T02:25:19;4.45;;;3.38;;
14235;SDS011;7202;50.718;7.072;2024-03-06T02:27:47;4.47;;;3.00;;
14235;SDS011;7202;50.718;7.072;2024-03-06T02:30:19;3.60;;;2.72;;
14235;SDS011;7202;50.718;7.072;2024-03-06T02:32:48;3.53;;;3.22;;
14235;SDS011;7202;50.718;7.072;2024-03-06T02:35:17;3.55;;;2.45;;
14235;SDS011;7202;50.718;7.072;2024-03-06T02:37:47;4.70;;;3.10;;
14235;SDS011;7202;50.718;7.072;2024-03-06T02:40:16;3.63;;;2.80;;
14235;SDS011;7202;50.718;7.072;2024-03-06T02:42:44;4.60;;;2.72;;
14235;SDS011;7202;50.718;7.072;2024-03-06T02:45:13;3.88;;;2.70;;
14235;SDS011;7202;50.718;7.072;2024-03-06T02:47:41;5.25;;;2.72;;
14235;SDS011;7202;50.718;7.072;2024-03-06T02:50:12;4.30;;;2.70;;
14235;SDS011;7202;50.718;7.072;2024-03-06T02:52:44;5.47;;;3.08;;
14235;SDS011;7202;50.718;7.072;2024-03-06T02:55:14;4.28;;;2.47;;
14235;SDS011;7202;50.718;7.072;2024-03-06T02:57:43;3.78;;;2.70;;
14235;SDS011;7202;50.718;7.072;2024-03-06T03:00:12;5.05;;;3.00;;
14235;SDS011;7202;50.718;7.072;2024-03-06T03:02:43;3.20;;;2.58;;
14235;SDS011;7202;50.718;7.072;2024-03-06T03:05:11;3.17;;;2.72;;
14235;SDS011;7202;50.718;7.072;2024-03-06T03:07:40;2.58;;;2.38;;
14235;SDS011;7202;50.718;7.072;2024-03-06T03:10:10;6.13;;;2.80;;
14235;SDS011;7202;50.718;7.072;2024-03-06T03:12:39;3.78;;;2.58;;
14235;SDS011;7202;50.718;7.072;2024-03-06T03:15:08;3.42;;;2.60;;
14235;SDS011;7202;50.718;7.072;2024-03-06T03:17:37;4.10;;;3.15;;
14235;SDS011;7202;50.718;7.072;2024-03-06T03:20:06;5.70;;;3.22;;
14235;SDS011;7202;50.718;7.072;2024-03-06T03:22:38;3.90;;;2.75;;
14235;SDS011;7202;50.718;7.072;2024-03-06T03:25:07;4.43;;;2.88;;
14235;SDS011;7202;50.718;7.072;2024-03-06T03:27:38;3.25;;;2.70;;
14235;SDS011;7202;50.718;7.072;2024-03-06T03:30:07;4.82;;;2.60;;
14235;SDS011;7202;50.718;7.072;2024-03-06T03:32:37;4.50;;;2.55;;
14235;SDS011;7202;50.718;7.072;2024-03-06T03:35:06;4.55;;;2.63;;
14235;SDS011;7202;50.718;7.072;2024-03-06T03:37:35;2.92;;;2.53;;
14235;SDS011;7202;50.718;7.072;2024-03-06T03:40:05;3.67;;;2.60;;
14235;SDS011;7202;50.718;7.072;2024-03-06T03:42:34;5.20;;;2.67;;
14235;SDS011;7202;50.718;7.072;2024-03-06T03:45:05;3.45;;;2.60;;
14235;SDS011;7202;50.718;7.072;2024-03-06T03:47:34;4.28;;;2.35;;
14235;SDS011;7202;50.718;7.072;2024-03-06T03:50:02;2.40;;;2.00;;
14235;SDS011;7202;50.718;7.072;2024-03-06T03:52:37;4.70;;;2.35;;
14235;SDS011;7202;50.718;7.072;2024-03-06T03:55:09;5.25;;;2.42;;
14235;SDS011;7202;50.718;7.072;2024-03-06T03:57:38;3.03;;;2.28;;
14235;SDS011;7202;50.718;7.072;2024-03-06T04:00:09;2.72;;;2.45;;
14235;SDS011;7202;50.718;7.072;2024-03-06T04:02:38;2.63;;;2.10;;
14235;SDS011;7202;50.718;7.072;2024-03-06T04:05:07;3.05;;;2.20;;
14235;SDS011;7202;50.718;7.072;2024-03-06T04:07:37;3.40;;;2.40;;
14235;SDS011;7202;50.718;7.072;2024-03-06T04:10:06;3.65;;;2.38;;
14235;SDS011;7202;50.718;7.072;2024-03-06T04:12:38;3.15;;;2.35;;
14235;SDS011;7202;50.718;7.072;2024-03-06T04:15:09;3.50;;;2.30;;
14235;SDS011;7202;50.718;7.072;2024-03-06T04:17:37;3.25;;;2.45;;
14235;SDS011;7202;50.718;7.072;2024-03-06T04:20:08;3.33;;;2.63;;
14235;SDS011;7202;50.718;7.072;2024-03-06T04:22:39;3.38;;;2.50;;
14235;SDS011;7202;50.718;7.072;2024-03-06T04:25:08;3.72;;;2.55;;
14235;SDS011;7202;50.718;7.072;2024-03-06T04:27:37;3.03;;;2.35;;
14235;SDS011;7202;50.718;7.072;2024-03-06T04:30:06;3.70;;;2.58;;
14235;SDS011;7202;50.718;7.072;2024-03-06T04:32:37;3.50;;;2.78;;
14235;SDS011;7202;50.718;7.072;2024-03-06T04:35:06;2.55;;;2.20;;
14235;SDS011;7202;50.718;7.072;2024-03-06T04:37:36;5.93;;;2.92;;
14235;SDS011;7202;50.718;7.072;2024-03-06T04:40:05;2.65;;;2.42;;
14235;SDS011;7202;50.718;7.072;2024-03-06T04:42:35;2.92;;;2.42;;
14235;SDS011;7202;50.718;7.072;2024-03-06T04:45:08;4.25;;;2.55;;
14235;SDS011;7202;50.718;7.072;2024-03-06T04:47:40;2.92;;;2.45;;
14235;SDS011;7202;50.718;7.072;2024-03-06T04:50:09;3.35;;;2.30;;
14235;SDS011;7202;50.718;7.072;2024-03-06T04:52:38;2.80;;;2.10;;
14235;SDS011;7202;50.718;7.072;2024-03-06T04:55:08;4.55;;;2.42;;
14235;SDS011;7202;50.718;7.072;2024-03-06T04:57:38;2.88;;;2.25;;
14235;SDS011;7202;50.718;7.072;2024-03-06T05:00:09;4.45;;;2.45;;
14235;SDS011;7202;50.718;7.072;2024-03-06T05:02:40;4.35;;;2.53;;
14235;SDS011;7202;50.718;7.072;2024-03-06T05:05:26;4.88;;;3.08;;
14235;SDS011;7202;50.718;7.072;2024-03-06T05:08:13;2.65;;;2.35;;
14235;SDS011;7202;50.718;7.072;2024-03-06T05:11:00;3.65;;;2.95;;
14235;SDS011;7202;50.718;7.072;2024-03-06T05:13:47;6.15;;;3.25;;
14235;SDS011;7202;50.718;7.072;2024-03-06T05:16:34;7.65;;;3.33;;
14235;SDS011;7202;50.718;7.072;2024-03-06T05:19:20;5.65;;;3.30;;
14235;SDS011;7202;50.718;7.072;2024-03-06T05:22:06;4.03;;;3.08;;
14235;SDS011;7202;50.718;7.072;2024-03-06T05:24:52;3.35;;;2.35;;
14235;SDS011;7202;50.718;7.072;2024-03-06T05:27:39;3.72;;;2.50;;
14235;SDS011;7202;50.718;7.072;2024-03-06T05:30:25;5.13;;;2.50;;
14235;SDS011;7202;50.718;7.072;2024-03-06T05:33:12;4.28;;;2.50;;
14235;SDS011;7202;50.718;7.072;2024-03-06T05:35:58;3.58;;;2.45;;
14235;SDS011;7202;50.718;7.072;2024-03-06T05:38:44;3.78;;;2.58;;
14235;SDS011;7202;50.718;7.072;2024-03-06T05:41:31;3.95;;;2.70;;
14235;SDS011;7202;50.718;7.072;2024-03-06T05:44:17;3.35;;;2.90;;
14235;SDS011;7202;50.718;7.072;2024-03-06T05:47:04;2.80;;;2.38;;
14235;SDS011;7202;50.718;7.072;2024-03-06T05:49:52;4.13;;;2.75;;
14235;SDS011;7202;50.718;7.072;2024-03-06T05:52:38;4.25;;;2.63;;
14235;SDS011;7202;50.718;7.072;2024-03-06T05:55:24;3.22;;;2.78;;
14235;SDS011;7202;50.718;7.072;2024-03-06T05:58:10;4.10;;;2.90;;
14235;SDS011;7202;50.718;7.072;2024-03-06T06:00:42;4.47;;;3.03;;
14235;SDS011;7202;50.718;7.072;2024-03-06T06:03:11;4.38;;;3.10;;
14235;SDS011;7202;50.718;7.072;2024-03-06T06:05:41;4.63;;;2.60;;
14235;SDS011;7202;50.718;7.072;2024-03-06T06:08:10;3.40;;;2.53;;
14235;SDS011;7202;50.718;7.072;2024-03-06T06:10:39;3.15;;;2.60;;
14235;SDS011;7202;50.718;7.072;2024-03-06T06:13:07;3.92;;;2.70;;
14235;SDS011;7202;50.718;7.072;2024-03-06T06:15:36;3.25;;;2.33;;
14235;SDS011;7202;50.718;7.072;2024-03-06T06:18:05;3.97;;;2.90;;
14235;SDS011;7202;50.718;7.072;2024-03-06T06:20:33;3.90;;;3.10;;
14235;SDS011;7202;50.718;7.072;2024-03-06T06:23:04;5.03;;;3.55;;
14235;SDS011;7202;50.718;7.072;2024-03-06T06:25:32;3.92;;;2.45;;
14235;SDS011;7202;50.718;7.072;2024-03-06T06:28:01;5.32;;;3.00;;
14235;SDS011;7202;50.718;7.072;2024-03-06T06:30:30;4.18;;;2.80;;
14235;SDS011;7202;50.718;7.072;2024-03-06T06:33:00;5.60;;;2.97;;
14235;SDS011;7202;50.718;7.072;2024-03-06T06:35:28;5.47;;;3.08;;
14235;SDS011;7202;50.718;7.072;2024-03-06T06:37:57;4.05;;;3.00;;
14235;SDS011;7202;50.718;7.072;2024-03-06T06:40:26;3.78;;;2.90;;
14235;SDS011;7202;50.718;7.072;2024-03-06T06:42:55;5.55;;;2.97;;
14235;SDS011;7202;50.718;7.072;2024-03-06T06:45:24;3.78;;;2.85;;
14235;SDS011;7202;50.718;7.072;2024-03-06T06:47:53;4.00;;;3.38;;
14235;SDS011;7202;50.718;7.072;2024-03-06T06:50:22;4.25;;;3.15;;
14235;SDS011;7202;50.718;7.072;2024-03-06T06:52:53;5.72;;;2.80;;
14235;SDS011;7202;50.718;7.072;2024-03-06T06:55:21;4.95;;;3.33;;
14235;SDS011;7202;50.718;7.072;2024-03-06T06:57:52;5.03;;;2.92;;
14235;SDS011;7202;50.718;7.072;2024-03-06T07:00:22;4.57;;;3.47;;
14235;SDS011;7202;50.718;7.072;2024-03-06T07:02:52;5.38;;;3.45;;
14235;SDS011;7202;50.718;7.072;2024-03-06T07:05:20;5.20;;;3.22;;
14235;SDS011;7202;50.718;7.072;2024-03-06T07:07:49;5.25;;;3.55;;
14235;SDS011;7202;50.718;7.072;2024-03-06T07:10:21;7.53;;;3.35;;
14235;SDS011;7202;50.718;7.072;2024-03-06T07:12:50;4.43;;;3.60;;
14235;SDS011;7202;50.718;7.072;2024-03-06T07:15:20;5.55;;;3.63;;
14235;SDS011;7202;50.718;7.072;2024-03-06T07:17:48;6.43;;;3.42;;
14235;SDS011;7202;50.718;7.072;2024-03-06T07:20:17;4.47;;;3.25;;
14235;SDS011;7202;50.718;7.072;2024-03-06T07:22:46;5.65;;;2.92;;
14235;SDS011;7202;50.718;7.072;2024-03-06T07:25:14;5.15;;;3.25;;
14235;SDS011;7202;50.718;7.072;2024-03-06T07:27:43;4.00;;;2.97;;
14235;SDS011;7202;50.718;7.072;2024-03-06T07:30:12;4.10;;;2.85;;
14235;SDS011;7202;50.718;7.072;2024-03-06T07:32:42;5.00;;;3.65;;
14235;SDS011;7202;50.718;7.072;2024-03-06T07:35:11;6.50;;;3.83;;
14235;SDS011;7202;50.718;7.072;2024-03-06T07:37:40;4.47;;;3.20;;
14235;SDS011;7202;50.718;7.072;2024-03-06T07:40:11;7.88;;;3.50;;
14235;SDS011;7202;50.718;7.072;2024-03-06T07:42:40;3.70;;;2.95;;
14235;SDS011;7202;50.718;7.072;2024-03-06T07:45:09;3.40;;;2.80;;
14235;SDS011;7202;50.718;7.072;2024-03-06T07:47:38;3.72;;;3.20;;
14235;SDS011;7202;50.718;7.072;2024-03-06T07:50:10;4.30;;;3.10;;
14235;SDS011;7202;50.718;7.072;2024-03-06T07:52:39;4.28;;;3.13;;
14235;SDS011;7202;50.718;7.072;2024-03-06T07:55:08;4.22;;;3.22;;
14235;SDS011;7202;50.718;7.072;2024-03-06T07:57:36;5.50;;;3.50;;
14235;SDS011;7202;50.718;7.072;2024-03-06T08:00:05;6.05;;;3.35;;
14235;SDS011;7202;50.718;7.072;2024-03-06T08:02:41;4.93;;;3.72;;
14235;SDS011;7202;50.718;7.072;2024-03-06T08:05:12;4.20;;;3.05;;
14235;SDS011;7202;50.718;7.072;2024-03-06T08:07:41;3.67;;;3.15;;
14235;SDS011;7202;50.718;7.072;2024-03-06T08:10:12;3.95;;;3.53;;
14235;SDS011;7202;50.718;7.072;2024-03-06T08:12:41;6.05;;;3.95;;
14235;SDS011;7202;50.718;7.072;2024-03-06T08:15:11;5.55;;;3.72;;
14235;SDS011;7202;50.718;7.072;2024-03-06T08:17:41;6.00;;;3.67;;
14235;SDS011;7202;50.718;7.072;2024-03-06T08:20:13;8.75;;;3.75;;
14235;SDS011;7202;50.718;7.072;2024-03-06T08:22:42;9.38;;;4.20;;
14235;SDS011;7202;50.718;7.072;2024-03-06T08:25:11;5.50;;;4.30;;
14235;SDS011;7202;50.718;7.072;2024-03-06T08:27:40;6.88;;;4.07;;
14235;SDS011;7202;50.718;7.072;2024-03-06T08:30:10;8.00;;;5.38;;
14235;SDS011;7202;50.718;7.072;2024-03-06T08:32:39;9.23;;;5.22;;
14235;SDS011;7202;50.718;7.072;2024-03-06T08:35:12;6.00;;;4.45;;
14235;SDS011;7202;50.718;7.072;2024-03-06T08:37:47;6.68;;;4.68;;
14235;SDS011;7202;50.718;7.072;2024-03-06T08:40:16;9.77;;;4.60;;
14235;SDS011;7202;50.718;7.072;2024-03-06T08:42:45;6.55;;;5.00;;
14235;SDS011;7202;50.718;7.072;2024-03-06T08:45:16;6.10;;;4.80;;
14235;SDS011;7202;50.718;7.072;2024-03-06T08:47:45;7.05;;;4.82;;
14235;SDS011;7202;50.718;7.072;2024-03-06T08:50:16;7.78;;;5.45;;
14235;SDS011;7202;50.718;7.072;2024-03-06T08:52:45;6.47;;;4.78;;
14235;SDS011;7202;50.718;7.072;2024-03-06T08:55:14;6.68;;;5.07;;
14235;SDS011;7202;50.718;7.072;2024-03-06T08:57:43;7.07;;;5.05;;
14235;SDS011;7202;50.718;7.072;2024-03-06T09:00:11;7.20;;;4.57;;
14235;SDS011;7202;50.718;7.072;2024-03-06T09:02:41;6.03;;;4.63;;
14235;SDS011;7202;50.718;7.072;2024-03-06T09:05:10;6.28;;;4.60;;
14235;SDS011;7202;50.718;7.072;2024-03-06T09:07:41;6.07;;;4.47;;
14235;SDS011;7202;50.718;7.072;2024-03-06T09:10:10;6.63;;;4.18;;
14235;SDS011;7202;50.718;7.072;2024-03-06T09:12:39;5.45;;;4.38;;
14235;SDS011;7202;50.718;7.072;2024-03-06T09:15:08;6.53;;;4.10;;
14235;SDS011;7202;50.718;7.072;2024-03-06T09:17:38;3.97;;;3.58;;
14235;SDS011;7202;50.718;7.072;2024-03-06T09:20:07;7.57;;;4.07;;
14235;SDS011;7202;50.718;7.072;2024-03-06T09:22:39;8.88;;;4.07;;
14235;SDS011;7202;50.718;7.072;2024-03-06T09:25:10;5.95;;;4.22;;
14235;SDS011;7202;50.718;7.072;2024-03-06T09:27:43;5.25;;;4.00;;
14235;SDS011;7202;50.718;7.072;2024-03-06T09:30:12;5.75;;;4.50;;
14235;SDS011;7202;50.718;7.072;2024-03-06T09:32:42;8.98;;;6.30;;
14235;SDS011;7202;50.718;7.072;2024-03-06T09:35:11;7.45;;;5.57;;
14235;SDS011;7202;50.718;7.072;2024-03-06T09:37:44;8.77;;;5.78;;
14235;SDS011;7202;50.718;7.072;2024-03-06T09:40:20;8.57;;;5.88;;
14235;SDS011;7202;50.718;7.072;2024-03-06T09:42:50;9.65;;;5.20;;
14235;SDS011;7202;50.718;7.072;2024-03-06T09:45:20;8.20;;;6.05;;
14235;SDS011;7202;50.718;7.072;2024-03-06T09:47:49;9.15;;;6.53;;
14235;SDS011;7202;50.718;7.072;2024-03-06T09:50:22;10.07;;;6.85;;
14235;SDS011;7202;50.718;7.072;2024-03-06T09:52:53;8.88;;;6.78;;
14235;SDS011;7202;50.718;7.072;2024-03-06T09:55:25;9.93;;;5.88;;
14235;SDS011;7202;50.718;7.072;2024-03-06T09:57:54;7.55;;;5.30;;
14235;SDS011;7202;50.718;7.072;2024-03-06T10:00:23;8.80;;;5.50;;
14235;SDS011;7202;50.718;7.072;2024-03-06T10:02:54;8.23;;;5.80;;
14235;SDS011;7202;50.718;7.072;2024-03-06T10:05:26;8.55;;;5.40;;
14235;SDS011;7202;50.718;7.072;2024-03-06T10:07:55;9.82;;;6.43;;
14235;SDS011;7202;50.718;7.072;2024-03-06T10:10:27;7.55;;;5.40;;
14235;SDS011;7202;50.718;7.072;2024-03-06T10:12:55;8.60;;;6.65;;
14235;SDS011;7202;50.718;7.072;2024-03-06T10:15:28;8.77;;;6.75;;
14235;SDS011;7202;50.718;7.072;2024-03-06T10:18:10;9.75;;;7.05;;
14235;SDS011;7202;50.718;7.072;2024-03-06T10:20:38;7.47;;;5.75;;
14235;SDS011;7202;50.718;7.072;2024-03-06T10:23:10;8.27;;;5.95;;
14235;SDS011;7202;50.718;7.072;2024-03-06T10:25:41;7.78;;;6.07;;
14235;SDS011;7202;50.718;7.072;2024-03-06T10:28:11;8.07;;;5.43;;
14235;SDS011;7202;50.718;7.072;2024-03-06T10:30:41;7.88;;;5.35;;
14235;SDS011;7202;50.718;7.072;2024-03-06T10:33:11;7.32;;;5.32;;
14235;SDS011;7202;50.718;7.072;2024-03-06T10:35:40;7.55;;;5.18;;
14235;SDS011;7202;50.718;7.072;2024-03-06T10:38:10;7.85;;;5.50;;
14235;SDS011;7202;50.718;7.072;2024-03-06T10:40:41;9.27;;;5.70;;
14235;SDS011;7202;50.718;7.072;2024-03-06T10:43:11;6.78;;;5.25;;
14235;SDS011;7202;50.718;7.072;2024-03-06T10:45:40;6.70;;;4.65;;
14235;SDS011;7202;50.718;7.072;2024-03-06T10:48:14;8.30;;;5.25;;
14235;SDS011;7202;50.718;7.072;2024-03-06T10:50:44;11.07;;;5.22;;
14235;SDS011;7202;50.718;7.072;2024-03-06T10:53:14;6.03;;;4.68;;
14235;SDS011;7202;50.718;7.072;2024-03-06T10:55:50;6.47;;;4.22;;
14235;SDS011;7202;50.718;7.072;2024-03-06T10:58:19;5.55;;;4.40;;
14235;SDS011;7202;50.718;7.072;2024-03-06T11:00:48;6.57;;;4.72;;
14235;SDS011;7202;50.718;7.072;2024-03-06T11:03:19;7.07;;;5.28;;
14235;SDS011;7202;50.718;7.072;2024-03-06T11:05:48;5.80;;;4.45;;
14235;SDS011;7202;50.718;7.072;2024-03-06T11:08:19;7.13;;;4.70;;
14235;SDS011;7202;50.718;7.072;2024-03-06T11:10:49;6.35;;;4.40;;
14235;SDS011;7202;50.718;7.072;2024-03-06T11:13:23;8.85;;;4.05;;
14235;SDS011;7202;50.718;7.072;2024-03-06T11:15:53;8.68;;;4.78;;
14235;SDS011;7202;50.718;7.072;2024-03-06T11:18:41;8.98;;;4.75;;
14235;SDS011;7202;50.718;7.072;2024-03-06T11:21:29;7.68;;;5.07;;
14235;SDS011;7202;50.718;7.072;2024-03-06T11:24:14;6.22;;;3.83;;
14235;SDS011;7202;50.718;7.072;2024-03-06T11:26:47;4.80;;;4.28;;
14235;SDS011;7202;50.718;7.072;2024-03-06T11:29:18;7.15;;;5.55;;
14235;SDS011;7202;50.718;7.072;2024-03-06T11:32:03;9.77;;;5.53;;
14235;SDS011;7202;50.718;7.072;2024-03-06T11:34:36;9.05;;;5.82;;
14235;SDS011;7202;50.718;7.072;2024-03-06T11:37:05;7.22;;;5.10;;
14235;SDS011;7202;50.718;7.072;2024-03-06T11:39:38;10.30;;;5.50;;
14235;SDS011;7202;50.718;7.072;2024-03-06T11:42:11;6.68;;;5.80;;
14235;SDS011;7202;50.718;7.072;2024-03-06T11:44:52;8.82;;;5.13;;
14235;SDS011;7202;50.718;7.072;2024-03-06T11:47:22;7.03;;;4.78;;
14235;SDS011;7202;50.718;7.072;2024-03-06T11:49:51;9.20;;;5.68;;
14235;SDS011;7202;50.718;7.072;2024-03-06T11:52:21;7.85;;;5.65;;
14235;SDS011;7202;50.718;7.072;2024-03-06T11:54:50;6.00;;;5.00;;
14235;SDS011;7202;50.718;7.072;2024-03-06T11:57:21;6.32;;;5.18;;
14235;SDS011;7202;50.718;7.072;2024-03-06T11:59:51;6.20;;;4.97;;
14235;SDS011;7202;50.718;7.072;2024-03-06T12:02:21;8.20;;;5.55;;
14235;SDS011;7202;50.718;7.072;2024-03-06T12:04:49;7.43;;;5.00;;
14235;SDS011;7202;50.718;7.072;2024-03-06T12:07:18;7.30;;;5.13;;
14235;SDS011;7202;50.718;7.072;2024-03-06T12:09:47;5.78;;;4.57;;
14235;SDS011;7202;50.718;7.072;2024-03-06T12:12:15;6.95;;;4.68;;
14235;SDS011;7202;50.718;7.072;2024-03-06T12:14:55;6.25;;;4.40;;
14235;SDS011;7202;50.718;7.072;2024-03-06T12:17:24;6.80;;;4.80;;
14235;SDS011;7202;50.718;7.072;2024-03-06T12:19:54;7.22;;;4.25;;
14235;SDS011;7202;50.718;7.072;2024-03-06T12:22:24;7.10;;;4.10;;
14235;SDS011;7202;50.718;7.072;2024-03-06T12:24:58;5.60;;;3.72;;
14235;SDS011;7202;50.718;7.072;2024-03-06T12:27:27;6.00;;;3.65;;
14235;SDS011;7202;50.718;7.072;2024-03-06T12:29:57;5.10;;;4.00;;
14235;SDS011;7202;50.718;7.072;2024-03-06T12:32:25;8.57;;;4.15;;
14235;SDS011;7202;50.718;7.072;2024-03-06T12:34:57;5.57;;;4.28;;
14235;SDS011;7202;50.718;7.072;2024-03-06T12:37:30;7.78;;;4.43;;
14235;SDS011;7202;50.718;7.072;2024-03-06T12:40:01;5.63;;;4.22;;
14235;SDS011;7202;50.718;7.072;2024-03-06T12:42:31;5.57;;;4.32;;
14235;SDS011;7202;50.718;7.072;2024-03-06T12:45:02;5.85;;;4.50;;
14235;SDS011;7202;50.718;7.072;2024-03-06T12:47:31;6.45;;;4.50;;
14235;SDS011;7202;50.718;7.072;2024-03-06T12:49:59;5.10;;;3.83;;
14235;SDS011;7202;50.718;7.072;2024-03-06T12:52:28;7.00;;;4.63;;
14235;SDS011;7202;50.718;7.072;2024-03-06T12:54:56;6.55;;;4.78;;
14235;SDS011;7202;50.718;7.072;2024-03-06T12:57:25;6.93;;;4.22;;
14235;SDS011;7202;50.718;7.072;2024-03-06T12:59:54;6.18;;;3.90;;
14235;SDS011;7202;50.718;7.072;2024-03-06T13:02:24;4.88;;;4.18;;
14235;SDS011;7202;50.718;7.072;2024-03-06T13:04:53;5.07;;;4.40;;
14235;SDS011;7202;50.718;7.072;2024-03-06T13:07:22;5.85;;;4.30;;
14235;SDS011;7202;50.718;7.072;2024-03-06T13:09:50;4.22;;;3.55;;
14235;SDS011;7202;50.718;7.072;2024-03-06T13:12:19;4.15;;;3.50;;
14235;SDS011;7202;50.718;7.072;2024-03-06T13:14:47;5.80;;;4.35;;
14235;SDS011;7202;50.718;7.072;2024-03-06T13:17:16;6.95;;;4.65;;
14235;SDS011;7202;50.718;7.072;2024-03-06T13:19:46;7.72;;;4.75;;
14235;SDS011;7202;50.718;7.072;2024-03-06T13:22:15;7.05;;;4.63;;
14235;SDS011;7202;50.718;7.072;2024-03-06T13:24:43;5.95;;;4.78;;
14235;SDS011;7202;50.718;7.072;2024-03-06T13:27:16;7.28;;;5.05;;
14235;SDS011;7202;50.718;7.072;2024-03-06T13:29:45;7.18;;;4.75;;
14235;SDS011;7202;50.718;7.072;2024-03-06T13:32:14;6.88;;;4.63;;
14235;SDS011;7202;50.718;7.072;2024-03-06T13:34:43;7.25;;;4.32;;
14235;SDS011;7202;50.718;7.072;2024-03-06T13:37:13;6.18;;;5.30;;
14235;SDS011;7202;50.718;7.072;2024-03-06T13:39:42;6.88;;;5.50;;
14235;SDS011;7202;50.718;7.072;2024-03-06T13:42:10;12.60;;;5.82;;
14235;SDS011;7202;50.718;7.072;2024-03-06T13:44:39;8.40;;;4.97;;
14235;SDS011;7202;50.718;7.072;2024-03-06T13:47:07;7.80;;;6.07;;
14235;SDS011;7202;50.718;7.072;2024-03-06T13:49:43;7.18;;;5.53;;
14235;SDS011;7202;50.718;7.072;2024-03-06T13:52:12;6.90;;;5.38;;
14235;SDS011;7202;50.718;7.072;2024-03-06T13:54:42;7.25;;;4.93;;
14235;SDS011;7202;50.718;7.072;2024-03-06T13:57:11;6.15;;;5.13;;
14235;SDS011;7202;50.718;7.072;2024-03-06T13:59:39;7.35;;;5.15;;
14235;SDS011;7202;50.718;7.072;2024-03-06T14:02:08;6.63;;;4.70;;
14235;SDS011;7202;50.718;7.072;2024-03-06T14:04:37;6.38;;;4.40;;
14235;SDS011;7202;50.718;7.072;2024-03-06T14:07:05;7.72;;;4.70;;
14235;SDS011;7202;50.718;7.072;2024-03-06T14:09:35;4.63;;;3.50;;
14235;SDS011;7202;50.718;7.072;2024-03-06T14:12:04;4.43;;;3.33;;
14235;SDS011;7202;50.718;7.072;2024-03-06T14:14:34;3.85;;;3.40;;
14235;SDS011;7202;50.718;7.072;2024-03-06T14:17:02;7.03;;;3.60;;
14235;SDS011;7202;50.718;7.072;2024-03-06T14:19:31;4.53;;;3.70;;
14235;SDS011;7202;50.718;7.072;2024-03-06T14:22:00;5.93;;;4.40;;
14235;SDS011;7202;50.718;7.072;2024-03-06T14:24:31;5.78;;;3.70;;
14235;SDS011;7202;50.718;7.072;2024-03-06T14:27:01;4.05;;;3.38;;
14235;SDS011;7202;50.718;7.072;2024-03-06T14:29:30;8.82;;;3.95;;
14235;SDS011;7202;50.718;7.072;2024-03-06T14:31:59;4.47;;;3.88;;
14235;SDS011;7202;50.718;7.072;2024-03-06T14:34:30;4.75;;;4.10;;
14235;SDS011;7202;50.718;7.072;2024-03-06T14:37:06;4.78;;;3.53;;
14235;SDS011;7202;50.718;7.072;2024-03-06T14:39:34;6.28;;;4.03;;
14235;SDS011;7202;50.718;7.072;2024-03-06T14:42:05;4.93;;;3.60;;
14235;SDS011;7202;50.718;7.072;2024-03-06T14:44:34;4.95;;;3.63;;
14235;SDS011;7202;50.718;7.072;2024-03-06T14:47:02;5.90;;;4.13;;
14235;SDS011;7202;50.718;7.072;2024-03-06T14:49:32;5.78;;;4.07;;
14235;SDS011;7202;50.718;7.072;2024-03-06T14:52:01;3.83;;;3.42;;
14235;SDS011;7202;50.718;7.072;2024-03-06T14:54:30;5.13;;;3.35;;
14235;SDS011;7202;50.718;7.072;2024-03-06T14:56:58;5.22;;;3.30;;
14235;SDS011;7202;50.718;7.072;2024-03-06T14:59:28;5.38;;;3.25;;
14235;SDS011;7202;50.718;7.072;2024-03-06T15:01:57;5.10;;;3.30;;
14235;SDS011;7202;50.718;7.072;2024-03-06T15:04:25;3.55;;;2.80;;
14235;SDS011;7202;50.718;7.072;2024-03-06T15:06:54;4.85;;;3.50;;
14235;SDS011;7202;50.718;7.072;2024-03-06T15:09:23;4.20;;;3.40;;
14235;SDS011;7202;50.718;7.072;2024-03-06T15:11:53;4.53;;;3.15;;
14235;SDS011;7202;50.718;7.072;2024-03-06T15:14:23;3.70;;;2.90;;
14235;SDS011;7202;50.718;7.072;2024-03-06T15:16:54;4.22;;;2.85;;
14235;SDS011;7202;50.718;7.072;2024-03-06T15:19:22;3.58;;;3.10;;
14235;SDS011;7202;50.718;7.072;2024-03-06T15:21:51;7.57;;;2.92;;